createdAt,value
2022-08-20T00:01:06.079Z,57.70
2022-08-20T00:02:44.063Z,57.70
2022-08-20T00:04:17.489Z,57.80
2022-08-20T00:05:56.741Z,57.70
2022-08-20T00:07:31.299Z,57.80
2022-08-20T00:09:05.792Z,57.80
2022-08-20T00:10:44.237Z,57.70
2022-08-20T00:12:22.032Z,57.80
2022-08-20T00:14:03.685Z,57.80
2022-08-20T00:15:38.959Z,58.00
2022-08-20T00:17:12.295Z,58.00
2022-08-20T00:18:47.627Z,57.90
2022-08-20T00:20:24.640Z,57.90
2022-08-20T00:21:58.705Z,58.10
2022-08-20T00:23:32.168Z,58.20
2022-08-20T00:25:08.207Z,58.30
2022-08-20T00:26:46.800Z,58.50
2022-08-20T00:28:26.120Z,58.60
2022-08-20T00:29:59.925Z,58.80
2022-08-20T00:31:33.760Z,59.20
2022-08-20T00:33:10.651Z,59.20
2022-08-20T00:34:44.110Z,59.50
2022-08-20T00:36:18.462Z,59.60
2022-08-20T00:37:51.930Z,59.70
2022-08-20T00:39:25.623Z,59.90
2022-08-20T00:40:59.596Z,60.30
2022-08-20T00:42:42.206Z,60.90
2022-08-20T00:44:22.510Z,61.20
2022-08-20T00:45:57.463Z,61.60
2022-08-20T00:47:30.757Z,62.20
2022-08-20T00:49:08.236Z,62.20
2022-08-20T00:50:41.627Z,62.50
2022-08-20T00:52:20.899Z,62.70
2022-08-20T00:53:57.596Z,64.10
2022-08-20T00:55:33.751Z,63.50
2022-08-20T00:57:12.544Z,63.60
2022-08-20T00:58:46.143Z,63.70
2022-08-20T01:00:27.046Z,63.80
2022-08-20T01:02:14.971Z,64.50
2022-08-20T01:03:55.553Z,64.50
2022-08-20T01:05:33.088Z,64.30
2022-08-20T01:07:12.006Z,64.40
2022-08-20T01:08:46.496Z,64.70
2022-08-20T01:10:28.970Z,64.80
2022-08-20T01:12:08.299Z,65.10
2022-08-20T01:13:49.279Z,65.20
2022-08-20T01:15:30.967Z,65.70
2022-08-20T01:17:14.393Z,65.70
2022-08-20T01:18:55.493Z,66.00
2022-08-20T01:20:36.914Z,66.00
2022-08-20T01:22:27.899Z,66.40
2022-08-20T01:24:11.938Z,66.30
2022-08-20T01:25:50.378Z,66.70
2022-08-20T01:27:25.510Z,67.70
2022-08-20T01:29:03.411Z,66.80
2022-08-20T01:30:37.766Z,67.20
2022-08-20T01:32:11.410Z,67.20
2022-08-20T01:33:46.781Z,67.30
2022-08-20T01:35:24.591Z,67.60
2022-08-20T01:36:59.563Z,67.80
2022-08-20T01:38:34.331Z,67.90
2022-08-20T01:40:15.409Z,68.10
2022-08-20T01:42:09.864Z,68.20
2022-08-20T01:43:42.559Z,69.00
2022-08-20T01:45:16.971Z,68.30
2022-08-20T01:46:55.638Z,68.30
2022-08-20T01:48:31.550Z,68.50
2022-08-20T01:50:18.780Z,69.30
2022-08-20T01:51:54.188Z,68.90
2022-08-20T01:53:34.396Z,68.70
2022-08-20T01:55:09.470Z,69.00
2022-08-20T01:56:59.054Z,68.90
2022-08-20T01:58:33.943Z,69.50
2022-08-20T02:00:19.794Z,69.00
2022-08-20T02:01:59.705Z,69.20
2022-08-20T02:03:39.700Z,69.10
2022-08-20T02:05:20.211Z,69.10
2022-08-20T02:07:00.307Z,69.20
2022-08-20T02:08:34.268Z,70.10
2022-08-20T02:10:10.428Z,69.30
2022-08-20T02:11:46.098Z,69.40
2022-08-20T02:13:20.920Z,69.60
2022-08-20T02:14:57.339Z,69.70
2022-08-20T02:16:37.645Z,69.80
2022-08-20T02:18:14.732Z,69.70
2022-08-20T02:19:54.695Z,69.70
2022-08-20T02:21:33.908Z,69.80
2022-08-20T02:23:08.486Z,69.80
2022-08-20T02:24:41.807Z,69.90
2022-08-20T02:26:18.890Z,69.80
2022-08-20T02:27:55.596Z,70.10
2022-08-20T02:29:30.404Z,70.20
2022-08-20T02:31:08.198Z,70.20
2022-08-20T02:32:44.439Z,70.10
2022-08-20T02:34:21.909Z,70.50
2022-08-20T02:35:57.654Z,70.20
2022-08-20T02:37:31.495Z,70.40
2022-08-20T02:39:05.647Z,70.30
2022-08-20T02:40:41.667Z,70.30
2022-08-20T02:42:15.166Z,70.30
2022-08-20T02:43:49.650Z,70.60
2022-08-20T02:45:23.983Z,70.70
2022-08-20T02:46:57.395Z,70.60
2022-08-20T02:48:31.548Z,70.50
2022-08-20T02:50:07.730Z,70.50
2022-08-20T02:51:41.414Z,70.50
2022-08-20T02:53:13.911Z,70.60
2022-08-20T02:54:47.972Z,70.70
2022-08-20T02:56:21.859Z,70.80
2022-08-20T02:57:55.716Z,70.70
2022-08-20T03:00:27.981Z,70.60
2022-08-20T03:02:02.887Z,71.10
2022-08-20T03:03:36.551Z,70.20
2022-08-20T03:05:11.121Z,70.30
2022-08-20T03:06:44.534Z,70.30
2022-08-20T03:08:17.636Z,70.40
2022-08-20T03:09:51.095Z,70.20
2022-08-20T03:11:24.672Z,70.10
2022-08-20T03:12:59.680Z,70.10
2022-08-20T03:14:33.611Z,70.20
2022-08-20T03:16:08.295Z,70.20
2022-08-20T03:17:43.204Z,70.30
2022-08-20T03:19:16.682Z,70.40
2022-08-20T03:20:52.145Z,70.30
2022-08-20T03:22:24.735Z,70.50
2022-08-20T03:23:58.451Z,70.30
2022-08-20T03:25:32.141Z,70.20
2022-08-20T03:27:06.407Z,70.10
2022-08-20T03:28:41.629Z,70.00
2022-08-20T03:30:17.723Z,69.90
2022-08-20T03:31:51.148Z,70.00
2022-08-20T03:33:26.703Z,69.80
2022-08-20T03:35:00.189Z,69.70
2022-08-20T03:36:33.812Z,69.60
2022-08-20T03:38:13.019Z,69.50
2022-08-20T03:39:46.748Z,69.80
2022-08-20T03:41:20.498Z,69.50
2022-08-20T03:42:53.878Z,69.50
2022-08-20T03:44:27.833Z,69.40
2022-08-20T03:46:02.148Z,69.50
2022-08-20T03:47:35.995Z,69.50
2022-08-20T03:49:10.914Z,69.40
2022-08-20T03:50:45.589Z,69.30
2022-08-20T03:52:19.375Z,69.20
2022-08-20T03:53:52.662Z,68.90
2022-08-20T03:55:27.727Z,68.80
2022-08-20T03:57:02.893Z,68.90
2022-08-20T03:58:37.774Z,68.70
2022-08-20T04:00:13.628Z,68.60
2022-08-20T04:01:48.189Z,68.60
2022-08-20T04:03:22.448Z,68.40
2022-08-20T04:04:57.282Z,68.40
2022-08-20T04:06:31.073Z,68.40
2022-08-20T04:08:05.501Z,69.10
2022-08-20T04:09:40.016Z,68.40
2022-08-20T04:11:13.683Z,68.40
2022-08-20T04:12:52.774Z,68.30
2022-08-20T04:14:26.709Z,68.20
2022-08-20T04:16:10.152Z,68.00
2022-08-20T04:17:51.324Z,68.00
2022-08-20T04:19:24.746Z,68.10
2022-08-20T04:20:59.508Z,68.10
2022-08-20T04:22:32.835Z,67.90
2022-08-20T04:24:07.614Z,68.00
2022-08-20T04:25:56.503Z,68.00
2022-08-20T04:27:32.495Z,67.90
2022-08-20T04:29:05.211Z,68.00
2022-08-20T04:30:38.886Z,68.00
2022-08-20T04:32:17.978Z,67.90
2022-08-20T04:33:51.680Z,68.00
2022-08-20T04:35:25.697Z,68.00
2022-08-20T04:37:00.356Z,68.90
2022-08-20T04:38:48.077Z,67.90
2022-08-20T04:40:41.689Z,67.60
2022-08-20T04:42:15.179Z,67.70
2022-08-20T04:43:49.307Z,67.60
2022-08-20T04:45:22.864Z,67.70
2022-08-20T04:46:56.355Z,67.70
2022-08-20T04:48:30.915Z,67.80
2022-08-20T04:50:10.535Z,67.80
2022-08-20T04:51:44.163Z,67.90
2022-08-20T04:53:25.789Z,67.90
2022-08-20T04:54:59.532Z,68.00
2022-08-20T04:56:39.858Z,68.00
2022-08-20T04:58:18.611Z,68.30
2022-08-20T04:59:55.567Z,68.40
2022-08-20T05:01:33.163Z,68.40
2022-08-20T05:03:07.134Z,68.30
2022-08-20T05:04:41.007Z,68.40
2022-08-20T05:06:15.962Z,68.50
2022-08-20T05:07:49.638Z,68.50
2022-08-20T05:09:25.126Z,68.60
2022-08-20T05:11:30.062Z,68.80
2022-08-20T05:12:56.464Z,68.90
2022-08-20T05:14:31.341Z,69.60
2022-08-20T05:16:05.404Z,68.80
2022-08-20T05:17:39.251Z,68.90
2022-08-20T05:19:14.548Z,68.90
2022-08-20T05:20:49.783Z,68.80
2022-08-20T05:22:24.323Z,68.80
2022-08-20T05:23:58.358Z,68.80
2022-08-20T05:25:33.910Z,68.90
2022-08-20T05:27:07.543Z,69.30
2022-08-20T05:28:54.373Z,69.40
2022-08-20T05:30:33.400Z,69.30
2022-08-20T05:32:08.028Z,69.30
2022-08-20T05:33:41.887Z,69.30
2022-08-20T05:35:15.227Z,69.30
2022-08-20T05:36:52.878Z,69.40
2022-08-20T05:38:30.918Z,69.40
2022-08-20T05:40:11.016Z,69.50
2022-08-20T05:41:46.095Z,69.90
2022-08-20T05:43:20.082Z,69.90
2022-08-20T05:44:53.385Z,70.00
2022-08-20T05:46:26.714Z,70.10
2022-08-20T05:48:00.305Z,70.30
2022-08-20T05:49:36.755Z,70.40
2022-08-20T05:51:15.034Z,70.50
2022-08-20T05:52:48.750Z,70.60
2022-08-20T05:54:23.830Z,71.50
2022-08-20T05:55:57.193Z,70.80
2022-08-20T05:57:31.847Z,70.70
2022-08-20T05:59:09.403Z,70.90
2022-08-20T06:00:42.815Z,71.00
2022-08-20T06:02:34.254Z,70.80
2022-08-20T06:04:28.556Z,70.80
2022-08-20T06:06:01.435Z,70.80
2022-08-20T06:07:35.024Z,71.30
2022-08-20T06:09:10.226Z,70.90
2022-08-20T06:10:44.463Z,71.20
2022-08-20T06:12:18.448Z,71.20
2022-08-20T06:13:52.147Z,71.30
2022-08-20T06:15:25.725Z,71.70
2022-08-20T06:17:05.657Z,71.80
2022-08-20T06:18:39.276Z,72.50
2022-08-20T06:20:13.631Z,72.30
2022-08-20T06:21:47.706Z,72.60
2022-08-20T06:23:23.127Z,72.60
2022-08-20T06:24:56.921Z,72.60
2022-08-20T06:26:31.752Z,72.70
2022-08-20T06:28:06.407Z,72.80
2022-08-20T06:29:41.658Z,72.70
2022-08-20T06:31:15.343Z,72.90
2022-08-20T06:32:49.174Z,73.70
2022-08-20T06:34:28.087Z,73.10
2022-08-20T06:36:02.664Z,73.10
2022-08-20T06:37:39.479Z,73.00
2022-08-20T06:39:12.982Z,73.20
2022-08-20T06:40:47.123Z,73.30
2022-08-20T06:42:21.869Z,73.10
2022-08-20T06:43:55.227Z,72.90
2022-08-20T06:45:33.598Z,72.80
2022-08-20T06:47:07.979Z,73.00
2022-08-20T06:48:42.336Z,73.00
2022-08-20T06:50:30.495Z,73.10
2022-08-20T06:52:05.663Z,73.30
2022-08-20T06:54:13.776Z,73.40
2022-08-20T06:55:52.746Z,73.40
2022-08-20T06:57:25.111Z,73.40
2022-08-20T06:58:58.713Z,73.10
2022-08-20T07:00:35.345Z,73.10
2022-08-20T07:02:09.955Z,73.20
2022-08-20T07:03:55.689Z,73.10
2022-08-20T07:05:29.765Z,72.90
2022-08-20T07:07:03.184Z,72.80
2022-08-20T07:08:37.121Z,72.70
2022-08-20T07:10:13.999Z,72.60
2022-08-20T07:11:56.639Z,72.90
2022-08-20T07:13:30.436Z,72.90
2022-08-20T07:15:06.054Z,72.80
2022-08-20T07:16:41.066Z,72.80
2022-08-20T07:18:15.185Z,72.90
2022-08-20T07:19:49.030Z,72.90
2022-08-20T07:21:22.371Z,72.90
2022-08-20T07:22:55.049Z,73.00
2022-08-20T07:24:33.257Z,73.10
2022-08-20T07:26:08.360Z,73.20
2022-08-20T07:27:43.499Z,73.10
2022-08-20T07:29:16.983Z,73.00
2022-08-20T07:31:14.336Z,73.00
2022-08-20T07:32:49.819Z,73.10
2022-08-20T07:34:23.198Z,73.30
2022-08-20T07:35:57.000Z,73.20
2022-08-20T07:37:30.437Z,73.40
2022-08-20T07:39:05.718Z,73.40
2022-08-20T07:40:39.883Z,73.40
2022-08-20T07:42:13.403Z,73.40
2022-08-20T07:43:48.976Z,73.40
2022-08-20T07:45:23.178Z,73.10
2022-08-20T07:46:56.859Z,73.00
2022-08-20T07:48:32.761Z,72.80
2022-08-20T07:50:09.270Z,72.60
2022-08-20T07:51:42.669Z,72.60
2022-08-20T07:53:16.965Z,72.70
2022-08-20T07:54:50.213Z,72.80
2022-08-20T07:56:24.958Z,72.80
2022-08-20T07:58:06.598Z,72.70
2022-08-20T07:59:40.087Z,72.60
2022-08-20T08:01:13.502Z,72.60
2022-08-20T08:02:47.083Z,72.60
2022-08-20T08:04:24.587Z,72.50
2022-08-20T08:05:57.992Z,72.50
2022-08-20T08:07:32.390Z,72.40
2022-08-20T08:09:14.310Z,72.50
2022-08-20T08:10:52.799Z,72.50
2022-08-20T08:12:39.258Z,72.30
2022-08-20T08:14:14.158Z,72.00
2022-08-20T08:15:50.395Z,71.90
2022-08-20T08:17:24.091Z,71.90
2022-08-20T08:18:58.392Z,71.80
2022-08-20T08:20:33.923Z,71.70
2022-08-20T08:22:21.226Z,71.50
2022-08-20T08:23:54.974Z,71.40
2022-08-20T08:25:28.875Z,71.20
2022-08-20T08:27:02.263Z,71.20
2022-08-20T08:28:36.951Z,71.20
2022-08-20T08:30:12.666Z,71.20
2022-08-20T08:31:46.383Z,71.10
2022-08-20T08:33:32.376Z,70.60
2022-08-20T08:35:09.083Z,70.60
2022-08-20T08:36:45.438Z,71.00
2022-08-20T08:38:18.979Z,71.30
2022-08-20T08:39:52.562Z,71.50
2022-08-20T08:41:32.023Z,71.50
2022-08-20T08:43:06.347Z,71.40
2022-08-20T08:44:43.263Z,71.30
2022-08-20T08:46:22.548Z,72.20
2022-08-20T08:47:59.323Z,72.20
2022-08-20T08:49:37.445Z,72.20
2022-08-20T08:51:16.351Z,72.20
2022-08-20T08:52:54.911Z,72.20
2022-08-20T08:54:32.390Z,71.70
2022-08-20T08:56:07.512Z,71.50
2022-08-20T08:57:41.870Z,71.50
2022-08-20T08:59:15.321Z,71.30
2022-08-20T09:00:57.616Z,71.40
2022-08-20T09:02:38.629Z,71.90
2022-08-20T09:04:13.239Z,72.30
2022-08-20T09:05:51.804Z,72.10
2022-08-20T09:07:32.324Z,72.20
2022-08-20T09:09:12.229Z,72.00
2022-08-20T09:10:46.234Z,72.10
2022-08-20T09:12:23.537Z,71.90
2022-08-20T09:13:58.478Z,71.70
2022-08-20T09:15:31.928Z,72.20
2022-08-20T09:17:06.645Z,73.30
2022-08-20T09:18:40.094Z,71.90
2022-08-20T09:20:14.244Z,71.90
2022-08-20T09:21:48.168Z,72.00
2022-08-20T09:23:22.044Z,71.90
2022-08-20T09:24:56.937Z,71.80
2022-08-20T09:26:30.503Z,72.10
2022-08-20T09:28:04.512Z,72.10
2022-08-20T09:29:39.618Z,72.60
2022-08-20T09:31:13.171Z,72.90
2022-08-20T09:32:50.642Z,72.90
2022-08-20T09:34:23.993Z,72.50
2022-08-20T09:35:57.360Z,72.20
2022-08-20T09:37:37.310Z,73.00
2022-08-20T09:39:12.486Z,73.10
2022-08-20T09:40:47.896Z,72.30
2022-08-20T09:42:24.751Z,72.30
2022-08-20T09:43:58.698Z,71.70
2022-08-20T09:45:32.748Z,71.90
2022-08-20T09:47:06.746Z,71.40
2022-08-20T09:48:40.000Z,70.70
2022-08-20T09:50:13.565Z,70.60
2022-08-20T09:51:46.976Z,69.90
2022-08-20T09:53:22.823Z,69.70
2022-08-20T09:55:02.446Z,69.80
2022-08-20T09:56:37.221Z,69.30
2022-08-20T09:58:21.579Z,69.20
2022-08-20T10:00:00.690Z,69.70
2022-08-20T10:01:34.845Z,70.10
2022-08-20T10:03:08.264Z,70.30
2022-08-20T10:04:41.916Z,70.40
2022-08-20T10:06:16.627Z,70.60
2022-08-20T10:07:50.200Z,70.80
2022-08-20T10:09:24.304Z,70.00
2022-08-20T10:10:57.615Z,69.90
2022-08-20T10:12:32.494Z,69.50
2022-08-20T10:14:07.256Z,68.90
2022-08-20T10:15:41.945Z,68.00
2022-08-20T10:17:16.560Z,67.20
2022-08-20T10:18:50.343Z,66.50
2022-08-20T10:20:24.959Z,66.00
2022-08-20T10:21:59.618Z,66.00
2022-08-20T10:23:33.558Z,65.50
2022-08-20T10:25:07.984Z,65.00
2022-08-20T10:26:41.503Z,64.80
2022-08-20T10:28:16.490Z,65.00
2022-08-20T10:29:50.443Z,65.20
2022-08-20T10:31:23.858Z,66.20
2022-08-20T10:32:57.310Z,65.00
2022-08-20T10:34:30.999Z,65.10
2022-08-20T10:36:08.483Z,65.10
2022-08-20T10:37:42.253Z,65.00
2022-08-20T10:39:16.605Z,65.20
2022-08-20T10:40:52.547Z,64.40
2022-08-20T10:42:26.009Z,63.60
2022-08-20T10:44:01.195Z,63.50
2022-08-20T10:45:35.246Z,63.10
2022-08-20T10:47:22.131Z,63.30
2022-08-20T10:48:55.852Z,63.20
2022-08-20T10:50:30.543Z,63.40
2022-08-20T10:52:05.922Z,63.30
2022-08-20T10:53:39.622Z,62.70
2022-08-20T10:55:12.971Z,63.10
2022-08-20T10:56:46.540Z,62.30
2022-08-20T10:58:20.312Z,62.10
2022-08-20T11:00:00.841Z,62.30
2022-08-20T11:01:36.928Z,62.10
2022-08-20T11:03:10.471Z,61.80
2022-08-20T11:04:44.805Z,61.80
2022-08-20T11:06:18.169Z,61.60
2022-08-20T11:07:56.549Z,61.40
2022-08-20T11:09:30.371Z,61.50
2022-08-20T11:11:04.625Z,61.20
2022-08-20T11:12:38.334Z,60.70
2022-08-20T11:14:11.761Z,60.70
2022-08-20T11:15:47.111Z,60.50
2022-08-20T11:17:23.011Z,59.90
2022-08-20T11:18:56.351Z,60.30
2022-08-20T11:20:31.399Z,60.10
2022-08-20T11:22:05.266Z,59.90
2022-08-20T11:23:38.639Z,59.40
2022-08-20T11:25:11.359Z,59.40
2022-08-20T11:26:48.659Z,59.20
2022-08-20T11:28:31.181Z,58.90
2022-08-20T11:30:08.471Z,58.90
2022-08-20T11:31:43.528Z,58.80
2022-08-20T11:33:16.947Z,58.40
2022-08-20T11:34:53.079Z,58.20
2022-08-20T11:36:27.086Z,58.40
2022-08-20T11:38:01.535Z,58.40
2022-08-20T11:39:37.484Z,58.40
2022-08-20T11:41:15.002Z,58.50
2022-08-20T11:43:11.162Z,58.70
2022-08-20T11:44:41.821Z,58.40
2022-08-20T11:46:15.482Z,58.10
2022-08-20T11:47:50.635Z,57.70
2022-08-20T11:49:23.970Z,57.20
2022-08-20T11:50:57.725Z,57.50
2022-08-20T11:52:31.669Z,57.60
2022-08-20T11:54:05.399Z,58.10
2022-08-20T11:55:40.855Z,58.00
2022-08-20T11:57:14.974Z,57.90
2022-08-20T11:58:48.897Z,57.80
2022-08-20T12:00:32.220Z,57.30
2022-08-20T12:02:11.706Z,57.30
2022-08-20T12:03:47.599Z,57.30
2022-08-20T12:05:21.503Z,56.80
2022-08-20T12:06:55.093Z,56.60
2022-08-20T12:08:30.386Z,56.40
2022-08-20T12:10:06.810Z,56.40
2022-08-20T12:11:40.899Z,56.00
2022-08-20T12:13:14.318Z,56.00
2022-08-20T12:14:47.763Z,56.00
2022-08-20T12:16:21.495Z,55.40
2022-08-20T12:17:56.043Z,54.90
2022-08-20T12:19:31.097Z,55.10
2022-08-20T12:21:04.591Z,54.70
2022-08-20T12:22:38.227Z,54.90
2022-08-20T12:24:11.593Z,54.10
2022-08-20T12:25:45.202Z,54.20
2022-08-20T12:27:23.049Z,54.60
2022-08-20T12:28:56.557Z,54.60
2022-08-20T12:30:29.952Z,54.80
2022-08-20T12:32:05.276Z,54.00
2022-08-20T12:33:38.673Z,54.10
2022-08-20T12:35:16.090Z,53.50
2022-08-20T12:36:49.524Z,53.30
2022-08-20T12:38:23.048Z,53.60
2022-08-20T12:39:59.943Z,53.50
2022-08-20T12:41:34.407Z,53.40
2022-08-20T12:43:08.442Z,53.70
2022-08-20T12:44:43.762Z,53.10
2022-08-20T12:46:17.432Z,52.60
2022-08-20T12:47:50.891Z,51.90
2022-08-20T12:49:24.243Z,51.20
2022-08-20T12:50:59.051Z,51.20
2022-08-20T12:52:33.983Z,50.80
2022-08-20T12:54:07.351Z,50.50
2022-08-20T12:55:40.775Z,50.60
2022-08-20T12:57:25.083Z,50.30
2022-08-20T12:58:58.376Z,50.30
2022-08-20T13:00:35.203Z,50.50
2022-08-20T13:02:14.441Z,49.90
2022-08-20T13:03:52.443Z,50.00
2022-08-20T13:05:27.448Z,50.00
2022-08-20T13:07:05.018Z,49.10
2022-08-20T13:08:42.609Z,48.30
2022-08-20T13:10:22.111Z,48.50
2022-08-20T13:11:55.652Z,48.40
2022-08-20T13:13:29.243Z,48.20
2022-08-20T13:15:01.824Z,48.30
2022-08-20T13:16:35.328Z,48.00
2022-08-20T13:18:09.410Z,47.30
2022-08-20T13:19:44.927Z,46.80
2022-08-20T13:21:21.107Z,46.70
2022-08-20T13:22:59.405Z,46.70
2022-08-20T13:24:32.870Z,46.90
2022-08-20T13:26:06.398Z,47.00
2022-08-20T13:27:43.043Z,47.00
2022-08-20T13:29:18.021Z,46.80
2022-08-20T13:30:51.614Z,47.20
2022-08-20T13:32:25.945Z,46.90
2022-08-20T13:33:59.454Z,46.90
2022-08-20T13:35:33.216Z,46.40
2022-08-20T13:37:14.204Z,46.10
2022-08-20T13:38:49.466Z,44.90
2022-08-20T13:40:23.117Z,46.00
2022-08-20T13:41:56.493Z,46.30
2022-08-20T13:43:29.794Z,45.40
2022-08-20T13:45:03.947Z,45.10
2022-08-20T13:46:38.420Z,45.20
2022-08-20T13:48:15.126Z,45.70
2022-08-20T13:49:56.624Z,45.60
2022-08-20T13:51:30.600Z,45.70
2022-08-20T13:53:04.350Z,46.00
2022-08-20T13:54:42.340Z,45.90
2022-08-20T13:56:16.013Z,44.80
2022-08-20T13:57:50.000Z,44.70
2022-08-20T13:59:24.116Z,44.80
2022-08-20T14:00:57.516Z,43.90
2022-08-20T14:02:31.140Z,43.90
2022-08-20T14:04:05.227Z,43.60
2022-08-20T14:05:39.764Z,43.30
2022-08-20T14:07:16.941Z,43.20
2022-08-20T14:08:50.257Z,42.40
2022-08-20T14:10:37.981Z,42.90
2022-08-20T14:12:13.316Z,42.70
2022-08-20T14:13:46.708Z,43.20
2022-08-20T14:15:20.215Z,42.70
2022-08-20T14:16:53.602Z,42.60
2022-08-20T14:18:26.941Z,42.50
2022-08-20T14:20:03.027Z,42.20
2022-08-20T14:21:37.054Z,42.40
2022-08-20T14:23:11.348Z,42.90
2022-08-20T14:24:45.553Z,42.70
2022-08-20T14:26:20.790Z,42.40
2022-08-20T14:27:55.415Z,42.40
2022-08-20T14:29:29.255Z,42.60
2022-08-20T14:31:09.315Z,42.20
2022-08-20T14:32:43.173Z,42.70
2022-08-20T14:34:16.758Z,43.40
2022-08-20T14:35:50.439Z,42.50
2022-08-20T14:37:28.291Z,42.20
2022-08-20T14:39:01.598Z,42.30
2022-08-20T14:40:36.714Z,43.40
2022-08-20T14:42:10.858Z,42.50
2022-08-20T14:43:44.342Z,42.50
2022-08-20T14:45:18.871Z,42.50
2022-08-20T14:46:52.215Z,42.10
2022-08-20T14:48:28.002Z,41.10
2022-08-20T14:50:06.546Z,40.80
2022-08-20T14:51:39.970Z,40.10
2022-08-20T14:53:13.493Z,40.60
2022-08-20T14:54:48.459Z,41.50
2022-08-20T14:56:22.083Z,40.90
2022-08-20T14:57:57.483Z,41.20
2022-08-20T14:59:30.177Z,40.50
2022-08-20T15:01:03.636Z,40.80
2022-08-20T15:02:38.150Z,40.90
2022-08-20T15:04:11.438Z,41.30
2022-08-20T15:05:45.342Z,41.00
2022-08-20T15:07:26.170Z,41.60
2022-08-20T15:08:59.804Z,41.30
2022-08-20T15:10:34.986Z,41.20
2022-08-20T15:12:08.842Z,41.30
2022-08-20T15:13:44.059Z,41.30
2022-08-20T15:15:19.511Z,41.00
2022-08-20T15:16:53.271Z,40.80
2022-08-20T15:18:26.935Z,40.70
2022-08-20T15:20:08.563Z,40.40
2022-08-20T15:21:53.446Z,40.40
2022-08-20T15:23:27.051Z,40.40
2022-08-20T15:25:00.390Z,40.60
2022-08-20T15:26:34.383Z,40.50
2022-08-20T15:28:10.906Z,41.00
2022-08-20T15:29:45.074Z,40.70
2022-08-20T15:31:18.624Z,40.90
2022-08-20T15:32:54.984Z,40.40
2022-08-20T15:34:28.936Z,40.20
2022-08-20T15:36:02.453Z,41.90
2022-08-20T15:37:40.307Z,40.90
2022-08-20T15:39:13.752Z,40.20
2022-08-20T15:40:47.483Z,41.30
2022-08-20T15:42:23.476Z,41.50
2022-08-20T15:43:57.954Z,41.50
2022-08-20T15:45:34.236Z,42.10
2022-08-20T15:47:23.774Z,42.30
2022-08-20T15:48:57.733Z,40.50
2022-08-20T15:51:03.935Z,40.70
2022-08-20T15:52:43.489Z,41.40
2022-08-20T15:54:22.724Z,42.40
2022-08-20T15:56:07.812Z,41.50
2022-08-20T15:57:56.435Z,42.70
2022-08-20T15:59:53.875Z,42.70
2022-08-20T16:01:43.138Z,43.10
2022-08-20T16:03:45.201Z,43.70
2022-08-20T16:05:33.355Z,41.90
2022-08-20T16:07:15.750Z,43.10
2022-08-20T16:09:15.538Z,43.60
2022-08-20T16:11:04.925Z,43.90
2022-08-20T16:12:42.082Z,43.50
2022-08-20T16:14:20.050Z,44.20
2022-08-20T16:15:57.618Z,44.10
2022-08-20T16:17:40.487Z,44.00
2022-08-20T16:19:22.404Z,43.80
2022-08-20T16:21:00.635Z,44.10
2022-08-20T16:22:43.976Z,44.00
2022-08-20T16:24:19.891Z,44.20
2022-08-20T16:26:18.963Z,44.30
2022-08-20T16:28:06.146Z,44.60
2022-08-20T16:29:54.538Z,44.40
2022-08-20T16:31:40.907Z,45.00
2022-08-20T16:33:32.083Z,45.30
2022-08-20T16:35:29.661Z,46.10
2022-08-20T16:37:17.962Z,46.50
2022-08-20T16:38:57.551Z,46.40
2022-08-20T16:40:39.806Z,46.60
2022-08-20T16:42:13.320Z,47.20
2022-08-20T16:43:53.132Z,46.70
2022-08-20T16:45:31.327Z,47.30
2022-08-20T16:47:18.202Z,46.60
2022-08-20T16:48:58.171Z,48.00
2022-08-20T16:50:40.898Z,47.90
2022-08-20T16:52:14.501Z,47.40
2022-08-20T16:53:48.122Z,47.00
2022-08-20T16:55:24.131Z,47.70
2022-08-20T16:57:06.063Z,47.70
2022-08-20T16:58:40.640Z,48.30
2022-08-20T17:00:23.508Z,48.50
2022-08-20T17:02:10.738Z,48.10
2022-08-20T17:03:51.262Z,47.70
2022-08-20T17:05:44.233Z,48.40
2022-08-20T17:07:31.066Z,47.50
2022-08-20T17:09:14.262Z,47.20
2022-08-20T17:11:02.432Z,47.50
2022-08-20T17:12:36.612Z,48.50
2022-08-20T17:14:14.375Z,49.20
2022-08-20T17:15:57.523Z,49.10
2022-08-20T17:17:35.498Z,48.80
2022-08-20T17:19:14.840Z,49.10
2022-08-20T17:20:48.666Z,49.40
2022-08-20T17:22:23.115Z,49.60
2022-08-20T17:24:01.229Z,49.80
2022-08-20T17:25:38.556Z,49.60
2022-08-20T17:27:16.908Z,49.90
2022-08-20T17:28:53.058Z,49.70
2022-08-20T17:30:36.635Z,49.80
2022-08-20T17:32:21.782Z,49.40
2022-08-20T17:33:55.092Z,49.50
2022-08-20T17:35:36.129Z,49.70
2022-08-20T17:37:22.349Z,50.00
2022-08-20T17:39:00.387Z,50.70
2022-08-20T17:40:45.923Z,50.40
2022-08-20T17:42:22.718Z,50.70
2022-08-20T17:44:03.461Z,50.90
2022-08-20T17:45:44.036Z,51.50
2022-08-20T17:47:24.562Z,51.40
2022-08-20T17:49:01.431Z,51.40
2022-08-20T17:50:40.458Z,51.70
2022-08-20T17:52:26.643Z,51.70
2022-08-20T17:54:15.627Z,52.00
2022-08-20T17:55:55.720Z,51.80
2022-08-20T17:57:38.403Z,51.80
2022-08-20T17:59:33.538Z,52.00
2022-08-20T18:01:15.779Z,52.00
2022-08-20T18:02:49.380Z,51.90
2022-08-20T18:04:22.989Z,51.90
2022-08-20T18:06:06.900Z,51.90
2022-08-20T18:08:02.435Z,52.00
2022-08-20T18:09:51.166Z,52.40
2022-08-20T18:11:33.073Z,52.50
2022-08-20T18:13:18.654Z,52.50
2022-08-20T18:15:09.051Z,52.80
2022-08-20T18:17:06.212Z,53.10
2022-08-20T18:18:55.048Z,52.80
2022-08-20T18:20:51.110Z,52.80
2022-08-20T18:22:30.186Z,53.00
2022-08-20T18:24:13.031Z,52.70
2022-08-20T18:25:53.955Z,53.00
2022-08-20T18:27:34.663Z,53.30
2022-08-20T18:29:16.236Z,53.30
2022-08-20T18:30:54.176Z,53.30
2022-08-20T18:32:35.512Z,53.50
2022-08-20T18:34:15.168Z,53.70
2022-08-20T18:35:48.527Z,53.80
2022-08-20T18:37:28.935Z,53.80
2022-08-20T18:39:08.914Z,54.10
2022-08-20T18:40:42.591Z,54.00
2022-08-20T18:42:30.040Z,54.00
2022-08-20T18:44:09.057Z,54.30
2022-08-20T18:45:43.828Z,54.20
2022-08-20T18:47:25.287Z,54.20
2022-08-20T18:49:02.900Z,54.50
2022-08-20T18:50:49.207Z,54.50
2022-08-20T18:52:29.434Z,54.80
2022-08-20T18:54:04.233Z,54.80
2022-08-20T18:55:44.368Z,54.70
2022-08-20T18:57:23.956Z,55.00
2022-08-20T18:59:03.703Z,55.10
2022-08-20T19:00:44.937Z,55.00
2022-08-20T19:02:25.231Z,54.90
2022-08-20T19:03:59.027Z,54.90
2022-08-20T19:05:43.759Z,54.80
2022-08-20T19:07:18.371Z,55.00
2022-08-20T19:09:02.126Z,55.00
2022-08-20T19:10:54.298Z,55.00
2022-08-20T19:13:27.238Z,55.60
2022-08-20T19:15:08.737Z,55.60
2022-08-20T19:16:48.250Z,55.20
2022-08-20T19:18:28.953Z,55.20
2022-08-20T19:20:06.136Z,55.20
2022-08-20T19:21:42.653Z,55.20
2022-08-20T19:23:24.826Z,55.40
2022-08-20T19:24:59.465Z,55.50
2022-08-20T19:26:43.710Z,55.60
2022-08-20T19:28:26.420Z,56.00
2022-08-20T19:29:59.980Z,55.80
2022-08-20T19:31:37.224Z,55.80
2022-08-20T19:33:11.134Z,55.80
2022-08-20T19:34:53.199Z,56.10
2022-08-20T19:36:28.310Z,56.20
2022-08-20T19:38:04.657Z,56.10
2022-08-20T19:39:38.667Z,56.20
2022-08-20T19:41:28.864Z,56.30
2022-08-20T19:43:14.846Z,56.50
2022-08-20T19:44:55.634Z,57.00
2022-08-20T19:46:40.615Z,56.40
2022-08-20T19:48:41.463Z,56.50
2022-08-20T19:50:24.590Z,56.70
2022-08-20T19:52:13.728Z,56.60
2022-08-20T19:53:49.931Z,56.60
2022-08-20T19:55:29.894Z,56.50
2022-08-20T19:57:08.327Z,56.70
2022-08-20T19:58:44.223Z,56.60
2022-08-20T20:00:18.339Z,56.90
2022-08-20T20:02:00.198Z,56.90
2022-08-20T20:03:38.742Z,57.10
2022-08-20T20:05:13.139Z,57.10
2022-08-20T20:06:49.953Z,57.00
2022-08-20T20:08:27.765Z,57.20
2022-08-20T20:10:01.724Z,57.20
2022-08-20T20:11:42.496Z,57.20
2022-08-20T20:13:21.258Z,57.30
2022-08-20T20:14:57.175Z,57.40
2022-08-20T20:16:31.299Z,57.50
2022-08-20T20:18:05.031Z,57.50
2022-08-20T20:19:46.425Z,57.50
2022-08-20T20:21:26.491Z,57.70
2022-08-20T20:23:13.543Z,57.60
2022-08-20T20:24:50.767Z,57.60
2022-08-20T20:26:26.007Z,57.60
2022-08-20T20:28:12.954Z,57.50
2022-08-20T20:29:46.389Z,57.70
2022-08-20T20:31:28.883Z,57.50
2022-08-20T20:33:19.327Z,57.80
2022-08-20T20:34:56.813Z,57.60
2022-08-20T20:36:37.754Z,57.50
2022-08-20T20:38:24.247Z,57.70
2022-08-20T20:40:07.108Z,57.70
2022-08-20T20:41:55.747Z,57.70
2022-08-20T20:43:33.750Z,57.70
2022-08-20T20:45:18.575Z,58.30
2022-08-20T20:47:03.824Z,58.00
2022-08-20T20:48:48.331Z,57.90
2022-08-20T20:50:34.358Z,57.80
2022-08-20T20:52:20.874Z,58.00
2022-08-20T20:53:58.163Z,57.80
2022-08-20T20:55:35.291Z,57.80